Time;durP1;ratioP1;P1;durP2;ratioP2;P2;SDS_P1;SDS_P2;PMS_P1;PMS_P2;Temp;Humidity;BMP_temperature;BMP_pressure;BME280_temperature;BME280_humidity;BME280_pressure;Samples;Min_cycle;Max_cycle;Signal;HPM_P1;HPM_P2
2022/03/12 00:01:00;;;;;;;7.07;3.37;;;;;;;-0.94;34.16;100814.91;4466334;32;34247;-72
2022/03/12 00:03:30;;;;;;;8.43;3.60;;;;;;;-1.02;33.43;100815.34;4472795;32;34153;-72
2022/03/12 00:06:00;;;;;;;12.07;4.07;;;;;;;-1.23;32.83;100803.84;4470668;32;33609;-72
2022/03/12 00:08:55;;;;;;;7.85;4.10;;;;;;;-0.88;32.97;100802.47;4470188;32;36036;-72
2022/03/12 00:11:25;;;;;;;12.85;3.92;;;;;;;-1.46;33.04;100798.22;4459286;32;34539;-72
2022/03/12 00:13:53;;;;;;;7.75;4.25;;;;;;;-2.27;34.17;100799.13;4459286;32;34487;-72
2022/03/12 00:16:25;;;;;;;10.23;4.18;;;;;;;-2.13;34.27;100802.56;4456690;32;33984;-73
2022/03/12 00:18:59;;;;;;;16.33;4.95;;;;;;;-2.00;34.00;100796.56;4456793;32;35056;-72
2022/03/12 00:21:29;;;;;;;8.18;4.20;;;;;;;-2.33;34.78;100793.63;4443107;32;33820;-72
2022/03/12 00:23:59;;;;;;;11.27;5.07;;;;;;;-2.31;33.92;100795.50;4465072;32;32759;-72
2022/03/12 00:26:28;;;;;;;20.05;8.20;;;;;;;-1.99;33.18;100796.66;4471933;32;32494;-73
2022/03/12 00:28:56;;;;;;;7.65;4.37;;;;;;;-2.68;37.07;100799.91;4471228;32;35082;-72
2022/03/12 00:31:25;;;;;;;8.98;3.97;;;;;;;-1.91;34.93;100802.25;4472277;32;34501;-72
2022/03/12 00:33:53;;;;;;;8.57;4.40;;;;;;;-2.08;34.41;100795.19;4459712;32;31740;-72
2022/03/12 00:36:22;;;;;;;5.70;3.30;;;;;;;-2.08;35.32;100798.66;4453691;32;33894;-73
2022/03/12 00:38:50;;;;;;;8.90;3.30;;;;;;;-2.25;35.12;100791.59;4460423;32;34956;-72
2022/03/12 00:41:18;;;;;;;8.48;3.97;;;;;;;-2.06;34.17;100793.66;4468342;32;35232;-72
2022/03/12 00:43:45;;;;;;;11.10;4.18;;;;;;;-1.73;33.06;100785.53;4462631;32;34395;-72
2022/03/12 00:46:14;;;;;;;9.95;3.67;;;;;;;-1.28;32.82;100789.91;4441088;32;33354;-71
2022/03/12 00:48:41;;;;;;;5.45;3.20;;;;;;;-1.01;31.87;100790.66;4453483;32;35044;-73
2022/03/12 00:51:10;;;;;;;8.73;3.22;;;;;;;-1.77;35.42;100809.09;4454761;32;34486;-72
2022/03/12 00:53:40;;;;;;;8.70;3.37;;;;;;;-1.62;34.06;100803.19;4458682;32;33437;-73
2022/03/12 00:56:08;;;;;;;10.55;3.55;;;;;;;-1.58;32.95;100790.69;4456404;32;33974;-72
2022/03/12 00:58:37;;;;;;;7.35;3.33;;;;;;;-1.37;32.30;100791.09;4466385;32;35910;-72
2022/03/12 01:01:06;;;;;;;7.40;3.50;;;;;;;-1.00;31.78;100795.00;4469135;32;34501;-72
2022/03/12 01:03:34;;;;;;;16.85;6.00;;;;;;;-1.11;32.68;100804.59;4467613;32;34237;-72
2022/03/12 01:06:03;;;;;;;9.63;5.03;;;;;;;-1.25;33.13;100793.53;4470208;32;34861;-72
2022/03/12 01:08:33;;;;;;;9.57;4.57;;;;;;;-1.27;33.64;100790.00;4467452;32;34941;-72
2022/03/12 01:11:06;;;;;;;8.75;4.28;;;;;;;-1.50;33.52;100790.28;4469490;32;35088;-73
2022/03/12 01:13:34;;;;;;;13.20;3.95;;;;;;;-1.48;32.35;100786.13;4466709;32;34347;-71
2022/03/12 01:16:02;;;;;;;7.78;3.95;;;;;;;-1.26;33.41;100789.19;4453422;32;33333;-72
2022/03/12 01:18:30;;;;;;;6.75;3.62;;;;;;;-0.91;32.75;100774.19;4456848;32;35175;-72
2022/03/12 01:21:09;;;;;;;10.95;4.47;;;;;;;-1.15;33.38;100777.97;4468975;32;34527;-72
2022/03/12 01:23:38;;;;;;;8.30;3.95;;;;;;;-1.41;33.03;100783.16;4467727;32;34342;-72
2022/03/12 01:26:06;;;;;;;10.38;4.65;;;;;;;-1.30;32.13;100787.25;4456092;32;34720;-72
2022/03/12 01:28:33;;;;;;;7.87;3.78;;;;;;;-1.37;32.06;100780.88;4462992;32;33506;-73
2022/03/12 01:31:01;;;;;;;10.63;5.03;;;;;;;-1.39;31.93;100786.72;4453262;32;33693;-72
2022/03/12 01:33:29;;;;;;;12.75;6.05;;;;;;;-1.01;31.40;100790.66;4452691;32;34193;-72
2022/03/12 01:35:57;;;;;;;9.48;5.12;;;;;;;-0.71;31.04;100801.78;4454486;32;33775;-72
2022/03/12 01:38:46;;;;;;;7.65;3.70;;;;;;;-1.04;31.50;100806.72;4453865;32;34821;-73
2022/03/12 01:41:20;;;;;;;7.28;4.03;;;;;;;-1.07;31.33;100803.97;4453642;32;34383;-72
2022/03/12 01:43:49;;;;;;;7.35;3.87;;;;;;;-1.12;31.62;100807.91;4454071;32;34354;-72
2022/03/12 01:46:18;;;;;;;8.00;3.87;;;;;;;-1.06;33.16;100803.19;4452804;32;34017;-72
2022/03/12 01:48:49;;;;;;;9.25;3.97;;;;;;;-2.01;37.19;100817.75;4440245;32;33367;-72
2022/03/12 01:51:17;;;;;;;5.53;3.20;;;;;;;-2.02;37.14;100816.87;4452598;32;35174;-72
2022/03/12 01:53:45;;;;;;;6.00;3.75;;;;;;;-1.74;37.62;100810.97;4457681;32;33696;-72
2022/03/12 01:56:12;;;;;;;6.12;3.22;;;;;;;-2.17;35.71;100815.91;4468545;32;33936;-72
2022/03/12 01:58:45;;;;;;;7.10;4.18;;;;;;;-3.09;37.88;100808.19;4468360;32;35016;-72
2022/03/12 02:01:14;;;;;;;8.55;3.95;;;;;;;-3.00;37.52;100813.03;4467455;32;34514;-72
2022/03/12 02:03:45;;;;;;;7.55;3.25;;;;;;;-2.49;34.88;100813.06;4452445;32;33052;-72
2022/03/12 02:06:15;;;;;;;8.68;4.03;;;;;;;-2.53;34.94;100810.19;4454045;32;33643;-72
2022/03/12 02:08:43;;;;;;;4.47;2.67;;;;;;;-2.34;34.59;100809.72;4452653;32;35735;-72
2022/03/12 02:11:11;;;;;;;6.65;3.92;;;;;;;-2.02;34.02;100809.22;4453389;32;34259;-72
2022/03/12 02:13:40;;;;;;;5.95;3.03;;;;;;;-2.14;34.21;100808.44;4453546;32;33316;-72
2022/03/12 02:16:09;;;;;;;8.38;4.05;;;;;;;-1.80;33.62;100803.81;4452676;32;33922;-72
2022/03/12 02:18:38;;;;;;;8.57;4.43;;;;;;;-1.79;33.84;100808.12;4456657;32;34944;-71
2022/03/12 02:21:06;;;;;;;6.72;3.87;;;;;;;-1.35;34.93;100809.97;4468225;32;34395;-72
2022/03/12 02:23:54;;;;;;;7.37;3.80;;;;;;;-1.28;32.38;100801.00;4467369;32;34128;-71
2022/03/12 02:26:22;;;;;;;8.02;3.55;;;;;;;-1.87;33.19;100798.22;4452615;32;33189;-72
2022/03/12 02:28:50;;;;;;;6.80;3.03;;;;;;;-1.98;33.61;100808.62;4453092;32;34961;-72
2022/03/12 02:31:26;;;;;;;5.50;3.70;;;;;;;-2.03;33.99;100812.59;4453586;32;34681;-72
2022/03/12 02:34:00;;;;;;;6.35;3.80;;;;;;;-2.27;35.24;100808.47;4444442;32;33434;-72
2022/03/12 02:36:31;;;;;;;9.90;4.47;;;;;;;-2.05;34.19;100810.69;4458653;32;34738;-72
2022/03/12 02:39:00;;;;;;;8.18;3.33;;;;;;;-1.95;33.96;100807.94;4439373;32;35351;-72
2022/03/12 02:41:28;;;;;;;6.12;3.15;;;;;;;-1.63;34.01;100809.94;4452228;32;34538;-72
2022/03/12 02:43:56;;;;;;;5.20;3.03;;;;;;;-1.34;32.66;100811.75;4451868;32;33638;-72
2022/03/12 02:46:28;;;;;;;5.62;2.70;;;;;;;-1.36;32.86;100812.41;4452251;32;34124;-72
2022/03/12 02:48:58;;;;;;;8.23;3.70;;;;;;;-1.38;33.40;100811.44;4451814;32;34976;-72
2022/03/12 02:51:26;;;;;;;7.55;3.72;;;;;;;-1.21;32.36;100818.47;4452189;32;34413;-72
2022/03/12 02:53:56;;;;;;;8.68;3.40;;;;;;;-1.19;32.79;100816.00;4452966;32;33357;-72
2022/03/12 02:56:24;;;;;;;5.22;3.22;;;;;;;-1.37;32.51;100810.69;4453620;32;34132;-72
2022/03/12 02:58:52;;;;;;;8.23;3.78;;;;;;;-1.02;32.29;100820.47;4454016;32;35047;-72
2022/03/12 03:01:22;;;;;;;6.20;3.60;;;;;;;-1.13;32.26;100811.25;4455555;32;34398;-71
2022/03/12 03:03:52;;;;;;;5.05;2.92;;;;;;;-0.89;32.14;100816.94;4454703;32;33555;-72
2022/03/12 03:06:20;;;;;;;5.55;2.97;;;;;;;-1.15;32.23;100811.19;4454301;32;33906;-73
2022/03/12 03:08:48;;;;;;;5.87;3.37;;;;;;;-1.09;32.47;100813.22;4457767;32;35179;-72
2022/03/12 03:11:16;;;;;;;8.95;2.87;;;;;;;-0.47;31.74;100811.69;4468884;32;34961;-72
2022/03/12 03:13:47;;;;;;;3.72;2.75;;;;;;;-1.13;32.18;100816.37;4466467;32;33570;-72
2022/03/12 03:16:21;;;;;;;6.60;3.70;;;;;;;-1.01;32.43;100811.97;4454324;32;34650;-72
2022/03/12 03:18:53;;;;;;;7.32;3.12;;;;;;;-0.89;32.28;100822.06;4454139;32;35768;-72
2022/03/12 03:21:24;;;;;;;8.63;3.50;;;;;;;-1.05;32.50;100825.38;4454321;32;34582;-72
2022/03/12 03:23:55;;;;;;;6.45;3.55;;;;;;;-0.84;32.00;100836.00;4456475;32;34384;-72
2022/03/12 03:26:44;;;;;;;6.90;4.03;;;;;;;-0.84;32.24;100827.47;4470983;32;33920;-72
2022/03/12 03:29:13;;;;;;;7.07;3.58;;;;;;;-0.69;31.97;100818.12;4462124;32;35714;-72
2022/03/12 03:31:42;;;;;;;5.80;3.10;;;;;;;-1.05;32.53;100827.94;4459933;32;34223;-72
2022/03/12 03:34:09;;;;;;;6.72;3.58;;;;;;;-1.01;32.47;100824.75;4468081;32;33301;-72
2022/03/12 03:36:37;;;;;;;7.25;3.67;;;;;;;-0.92;32.55;100826.13;4469803;32;34625;-72
2022/03/12 03:39:06;;;;;;;4.78;3.10;;;;;;;-1.53;33.85;100826.75;4465913;32;34913;-72
2022/03/12 03:41:33;;;;;;;6.60;2.85;;;;;;;-1.16;33.17;100826.44;4454206;32;34627;-72
2022/03/12 03:44:02;;;;;;;8.05;4.10;;;;;;;-1.28;33.97;100829.13;4454012;32;33093;-72
2022/03/12 03:46:30;;;;;;;5.00;3.22;;;;;;;-1.30;33.44;100825.59;4454149;32;33995;-72
2022/03/12 03:48:58;;;;;;;7.85;3.45;;;;;;;-1.51;34.02;100835.38;4454604;32;35969;-72
2022/03/12 03:51:26;;;;;;;6.22;2.60;;;;;;;-1.50;33.41;100834.59;4441437;32;33031;-72
2022/03/12 03:53:53;;;;;;;10.20;3.78;;;;;;;-1.20;32.94;100837.22;4453033;32;33434;-72
2022/03/12 03:56:21;;;;;;;8.63;2.97;;;;;;;-1.37;33.91;100833.66;4455087;32;33897;-72
2022/03/12 03:58:49;;;;;;;6.25;3.40;;;;;;;-1.04;32.99;100832.28;4454786;32;34947;-71
2022/03/12 04:01:22;;;;;;;6.72;3.03;;;;;;;-0.67;32.53;100828.44;4455176;32;35098;-72
2022/03/12 04:03:51;;;;;;;7.85;3.35;;;;;;;-1.29;33.62;100832.44;4453747;32;33456;-77
2022/03/12 04:06:22;;;;;;;7.37;3.30;;;;;;;-1.27;33.71;100828.34;4454003;32;34214;-72
2022/03/12 04:08:51;;;;;;;4.75;3.05;;;;;;;-1.00;32.88;100828.22;4453145;32;34284;-72
2022/03/12 04:11:21;;;;;;;8.15;3.42;;;;;;;-1.00;33.52;100828.22;4457929;32;35198;-74
2022/03/12 04:13:51;;;;;;;7.35;3.58;;;;;;;-1.21;33.33;100827.81;4454569;32;32517;-70
2022/03/12 04:16:20;;;;;;;6.05;2.85;;;;;;;-1.69;34.58;100831.66;4454936;32;33235;-71
2022/03/12 04:18:49;;;;;;;5.40;2.80;;;;;;;-1.33;33.84;100831.38;4453559;32;34963;-72
2022/03/12 04:21:19;;;;;;;4.50;2.95;;;;;;;-1.42;35.01;100828.28;4470392;32;34533;-70
2022/03/12 04:23:49;;;;;;;6.20;3.12;;;;;;;-1.56;36.08;100836.75;4467845;32;33105;-74
2022/03/12 04:26:17;;;;;;;11.10;4.03;;;;;;;-1.66;34.66;100831.88;4465521;32;33885;-76
2022/03/12 04:28:45;;;;;;;6.40;2.87;;;;;;;-1.55;35.15;100829.19;4453653;32;35155;-71
2022/03/12 04:31:13;;;;;;;4.68;3.12;;;;;;;-1.79;35.78;100833.66;4469327;32;33911;-71
2022/03/12 04:33:41;;;;;;;5.97;3.35;;;;;;;-1.85;36.43;100832.38;4468879;32;33294;-70
2022/03/12 04:36:10;;;;;;;6.35;3.08;;;;;;;-2.11;36.68;100829.94;4453677;32;34008;-72
2022/03/12 04:38:38;;;;;;;7.90;3.03;;;;;;;-2.21;36.15;100836.91;4453591;32;35059;-71
2022/03/12 04:41:06;;;;;;;6.00;3.50;;;;;;;-1.93;37.80;100834.44;4453042;32;35210;-72
2022/03/12 04:43:34;;;;;;;7.78;3.12;;;;;;;-2.35;38.13;100841.13;4453630;32;34104;-74
2022/03/12 04:46:02;;;;;;;6.00;3.25;;;;;;;-2.07;38.73;100832.69;4453027;32;34139;-71
2022/03/12 04:48:32;;;;;;;6.68;3.42;;;;;;;-2.80;39.55;100840.75;4453249;32;35930;-72
2022/03/12 04:51:00;;;;;;;5.78;3.30;;;;;;;-2.79;37.49;100839.06;4440564;32;33726;-72
2022/03/12 04:53:28;;;;;;;5.20;3.00;;;;;;;-2.55;38.91;100845.78;4453636;32;33508;-71
2022/03/12 04:55:56;;;;;;;5.85;2.97;;;;;;;-2.75;39.50;100843.59;4466285;32;34077;-71
2022/03/12 04:58:23;;;;;;;5.70;3.45;;;;;;;-3.62;42.97;100852.09;4469032;32;34567;-71
2022/03/12 05:00:51;;;;;;;4.75;3.00;;;;;;;-3.68;42.02;100852.56;4456368;32;34391;-72
2022/03/12 05:03:22;;;;;;;9.32;3.85;;;;;;;-3.56;41.53;100846.59;4454601;32;34362;-72
2022/03/12 05:05:51;;;;;;;4.47;3.40;;;;;;;-3.10;40.83;100847.22;4453138;32;34132;-75
2022/03/12 05:08:23;;;;;;;6.65;3.70;;;;;;;-3.55;42.23;100854.31;4452705;32;34933;-76
2022/03/12 05:10:53;;;;;;;16.12;3.75;;;;;;;-3.83;42.27;100856.56;4453122;32;35181;-71
2022/03/12 05:13:27;;;;;;;6.95;3.03;;;;;;;-3.38;42.62;100852.94;4453436;32;33696;-71
2022/03/12 05:16:05;;;;;;;7.80;3.05;;;;;;;-3.23;40.95;100853.09;4454088;32;33973;-72
2022/03/12 05:18:36;;;;;;;6.47;3.30;;;;;;;-4.33;43.97;100859.78;4452926;32;35064;-72
2022/03/12 05:21:05;;;;;;;5.97;2.92;;;;;;;-3.76;41.22;100843.50;4455293;32;32667;-71
2022/03/12 05:23:35;;;;;;;5.70;3.05;;;;;;;-3.35;41.67;100853.16;4453172;32;33533;-72
2022/03/12 05:26:02;;;;;;;4.30;3.22;;;;;;;-3.11;41.18;100850.53;4453835;32;34052;-71
2022/03/12 05:28:32;;;;;;;6.87;3.55;;;;;;;-3.56;39.88;100847.47;4463290;32;35897;-71
2022/03/12 05:31:04;;;;;;;2.72;2.40;;;;;;;-3.36;39.64;100853.94;4456162;32;34309;-71
2022/03/12 05:33:34;;;;;;;6.78;3.55;;;;;;;-3.06;41.67;100846.63;4459144;32;33136;-71
2022/03/12 05:36:03;;;;;;;6.20;3.33;;;;;;;-2.88;39.51;100842.78;4455489;32;33816;-75
2022/03/12 05:38:34;;;;;;;6.57;3.15;;;;;;;-2.78;40.01;100849.38;4455604;32;33590;-75
2022/03/12 05:41:07;;;;;;;6.25;3.47;;;;;;;-3.14;42.04;100848.66;4469234;32;34433;-72
2022/03/12 05:43:35;;;;;;;9.18;3.53;;;;;;;-1.62;37.91;100838.94;4456118;32;33322;-73
2022/03/12 05:46:03;;;;;;;4.37;2.90;;;;;;;0.59;34.51;100842.28;4468438;32;33915;-71
2022/03/12 05:48:32;;;;;;;11.65;5.45;;;;;;;2.52;33.81;100840.72;4469703;32;35318;-74
2022/03/12 05:51:00;;;;;;;7.45;4.25;;;;;;;3.47;29.43;100841.44;4469069;32;34391;-72
2022/03/12 05:53:32;;;;;;;8.35;4.20;;;;;;;5.00;26.06;100834.50;4469633;32;34312;-72
2022/03/12 05:55:59;;;;;;;8.25;3.50;;;;;;;5.28;27.70;100831.19;4480857;32;33806;-72
2022/03/12 05:58:27;;;;;;;8.00;3.97;;;;;;;6.05;24.72;100833.72;4485129;32;35206;-76
2022/03/12 06:00:55;;;;;;;6.55;3.65;;;;;;;4.78;27.07;100830.22;4458766;32;34098;-75
2022/03/12 06:03:24;;;;;;;6.18;3.55;;;;;;;6.32;25.55;100830.25;4468981;32;33742;-73
2022/03/12 06:05:56;;;;;;;8.85;3.62;;;;;;;5.29;25.35;100838.06;4468557;32;34747;-76
2022/03/12 06:08:26;;;;;;;6.68;3.50;;;;;;;5.18;25.13;100832.53;4468336;32;35813;-75
2022/03/12 06:10:55;;;;;;;9.77;4.05;;;;;;;3.67;27.83;100834.56;4454886;32;34327;-73
2022/03/12 06:13:25;;;;;;;8.20;3.30;;;;;;;4.46;27.07;100832.50;4469411;32;33586;-73
2022/03/12 06:16:02;;;;;;;7.65;3.60;;;;;;;4.47;26.82;100837.72;4458151;32;33099;-73
2022/03/12 06:18:35;;;;;;;9.93;4.32;;;;;;;4.43;26.04;100835.84;4469481;32;35746;-73
2022/03/12 06:21:06;;;;;;;7.65;4.00;;;;;;;4.28;26.58;100837.81;4469140;32;34405;-74
2022/03/12 06:23:34;;;;;;;8.40;3.92;;;;;;;3.65;28.01;100846.47;4454927;32;34912;-74
2022/03/12 06:26:02;;;;;;;9.57;4.47;;;;;;;4.37;27.55;100841.63;4468194;32;33980;-73
2022/03/12 06:28:33;;;;;;;7.95;4.35;;;;;;;5.42;26.39;100845.44;4469203;32;35038;-73
2022/03/12 06:31:02;;;;;;;8.18;4.65;;;;;;;6.06;24.93;100841.53;4455977;32;33596;-71
2022/03/12 06:33:31;;;;;;;13.20;5.40;;;;;;;6.81;23.81;100847.22;4473654;32;33544;-69
2022/03/12 06:36:01;;;;;;;11.07;4.25;;;;;;;6.82;24.02;100843.81;4486428;32;33472;-70
2022/03/12 06:38:37;;;;;;;10.68;4.70;;;;;;;6.64;23.56;100841.56;4464851;32;34949;-71
2022/03/12 06:41:05;;;;;;;9.25;4.43;;;;;;;7.71;22.33;100848.81;4470704;32;34247;-72
2022/03/12 06:43:33;;;;;;;10.45;4.60;;;;;;;5.42;25.03;100854.91;4456805;32;33512;-72
2022/03/12 06:46:03;;;;;;;7.78;3.95;;;;;;;4.73;25.69;100861.91;4472194;32;33347;-70
2022/03/12 06:48:32;;;;;;;7.15;3.67;;;;;;;5.59;24.62;100858.03;4472740;32;35978;-72
2022/03/12 06:51:01;;;;;;;7.45;3.47;;;;;;;5.08;25.65;100864.94;4476010;32;34533;-72
2022/03/12 06:53:30;;;;;;;7.80;3.80;;;;;;;5.58;24.82;100861.47;4456799;32;34570;-70
2022/03/12 06:55:58;;;;;;;12.98;3.90;;;;;;;5.34;25.06;100877.00;4456484;32;34732;-72
2022/03/12 06:58:27;;;;;;;6.60;3.62;;;;;;;4.24;26.69;100877.22;4470586;32;35048;-72
2022/03/12 07:00:55;;;;;;;7.25;3.47;;;;;;;4.24;27.62;100872.06;4456065;32;33999;-71
2022/03/12 07:03:24;;;;;;;7.22;3.45;;;;;;;4.43;26.91;100871.06;4456441;32;34240;-74
2022/03/12 07:05:52;;;;;;;5.18;2.90;;;;;;;4.65;26.07;100867.63;4465837;32;33298;-75
2022/03/12 07:08:20;;;;;;;6.87;3.50;;;;;;;4.58;26.42;100871.66;4472245;32;35834;-73
2022/03/12 07:10:49;;;;;;;6.60;3.37;;;;;;;3.49;26.94;100882.72;4470452;32;35279;-73
2022/03/12 07:13:17;;;;;;;6.65;3.20;;;;;;;4.09;27.34;100880.03;4456929;32;33320;-73
2022/03/12 07:15:45;;;;;;;6.90;3.37;;;;;;;4.40;26.36;100874.41;4451754;32;34720;-70
2022/03/12 07:18:13;;;;;;;6.72;3.28;;;;;;;4.30;27.30;100874.88;4486682;32;35171;-73
2022/03/12 07:20:40;;;;;;;13.00;3.35;;;;;;;4.65;25.67;100878.81;4463563;32;34498;-72
2022/03/12 07:23:08;;;;;;;11.27;3.28;;;;;;;3.82;27.97;100891.00;4456287;32;32077;-73
2022/03/12 07:25:36;;;;;;;8.23;2.90;;;;;;;4.41;26.02;100881.31;4467214;32;33978;-73
2022/03/12 07:28:04;;;;;;;6.70;4.03;;;;;;;4.56;26.50;100879.34;4472350;32;34486;-73
2022/03/12 07:30:32;;;;;;;7.28;3.42;;;;;;;4.51;26.79;100877.41;4478453;32;34555;-72
2022/03/12 07:33:00;;;;;;;7.10;3.60;;;;;;;5.27;25.30;100881.94;4470826;32;34174;-73
2022/03/12 07:35:28;;;;;;;7.30;4.03;;;;;;;4.40;26.84;100873.53;4476523;32;33935;-73
2022/03/12 07:37:57;;;;;;;7.45;3.53;;;;;;;5.21;26.44;100881.72;4472357;32;35112;-73
2022/03/12 07:40:25;;;;;;;5.32;3.17;;;;;;;5.56;24.87;100879.50;4479618;32;34435;-73
2022/03/12 07:42:55;;;;;;;5.32;3.17;;;;;;;5.64;25.11;100883.22;4469579;32;34349;-74
2022/03/12 07:45:24;;;;;;;7.55;3.55;;;;;;;4.94;26.29;100886.75;4475707;32;33983;-72
2022/03/12 07:47:52;;;;;;;6.25;3.42;;;;;;;5.53;25.40;100873.34;4486454;32;34994;-72
2022/03/12 07:50:20;;;;;;;7.65;3.75;;;;;;;5.17;25.49;100873.81;4485136;32;35198;-74
2022/03/12 07:52:48;;;;;;;6.15;3.60;;;;;;;5.26;25.38;100869.84;4486537;32;34216;-71
2022/03/12 07:55:16;;;;;;;9.98;4.05;;;;;;;5.56;24.89;100864.00;4471223;32;34147;-72
2022/03/12 07:57:45;;;;;;;9.35;3.55;;;;;;;5.14;25.88;100861.69;4472131;32;34968;-72
2022/03/12 08:00:14;;;;;;;7.97;4.32;;;;;;;4.92;26.40;100865.16;4470723;32;35300;-73
2022/03/12 08:02:46;;;;;;;6.80;3.67;;;;;;;5.98;25.64;100860.22;4449888;32;32080;-71
2022/03/12 08:05:16;;;;;;;7.87;3.30;;;;;;;6.22;23.97;100855.84;4469201;32;33664;-73
2022/03/12 08:07:44;;;;;;;11.38;4.28;;;;;;;6.09;24.55;100871.81;4470336;32;35088;-74
2022/03/12 08:10:12;;;;;;;8.05;3.60;;;;;;;6.30;23.79;100861.25;4469965;32;34374;-74
2022/03/12 08:12:40;;;;;;;6.45;3.30;;;;;;;6.13;24.25;100860.72;4456520;32;31822;-73
2022/03/12 08:15:11;;;;;;;6.03;3.30;;;;;;;6.69;23.57;100872.75;4446026;32;33176;-73
2022/03/12 08:17:46;;;;;;;6.55;3.10;;;;;;;6.38;24.34;100869.25;4457035;32;35860;-71
2022/03/12 08:20:14;;;;;;;9.15;3.45;;;;;;;6.78;23.10;100858.38;4456409;32;35207;-72
2022/03/12 08:22:45;;;;;;;8.25;4.00;;;;;;;6.81;23.00;100861.06;4455970;32;33092;-71
2022/03/12 08:25:14;;;;;;;7.65;3.55;;;;;;;6.72;22.96;100865.09;4472793;32;33244;-72
2022/03/12 08:27:42;;;;;;;10.07;3.50;;;;;;;7.05;22.19;100857.41;4486193;32;34899;-71
2022/03/12 08:30:11;;;;;;;12.57;3.70;;;;;;;6.83;22.21;100858.53;4467931;32;33414;-72
2022/03/12 08:32:40;;;;;;;7.50;3.95;;;;;;;7.26;21.37;100853.66;4456548;32;33547;-72
2022/03/12 08:35:09;;;;;;;6.35;3.00;;;;;;;6.91;21.98;100857.03;4469882;32;34002;-73
2022/03/12 08:37:37;;;;;;;7.60;3.47;;;;;;;7.22;21.58;100858.75;4455860;32;35805;-72
2022/03/12 08:40:06;;;;;;;7.50;3.80;;;;;;;7.37;21.99;100860.87;4457770;32;34396;-74
2022/03/12 08:42:35;;;;;;;5.18;3.85;;;;;;;7.18;22.35;100861.22;4470999;32;34251;-74
2022/03/12 08:45:04;;;;;;;8.55;3.92;;;;;;;7.16;22.16;100863.75;4443253;32;33944;-72
2022/03/12 08:47:31;;;;;;;8.02;4.15;;;;;;;6.76;21.59;100856.56;4456424;32;35133;-71
2022/03/12 08:50:00;;;;;;;9.35;3.95;;;;;;;6.25;22.55;100853.34;4470594;32;34531;-72
2022/03/12 08:52:28;;;;;;;8.93;4.28;;;;;;;6.72;22.25;100849.56;4486075;32;34378;-73
2022/03/12 08:54:56;;;;;;;6.70;3.50;;;;;;;7.14;21.04;100859.38;4484433;32;33810;-70
2022/03/12 08:57:24;;;;;;;6.12;3.37;;;;;;;7.67;20.24;100857.34;4470286;32;35101;-74
2022/03/12 08:59:52;;;;;;;6.95;3.62;;;;;;;6.85;20.70;100862.03;4469907;32;35182;-74
2022/03/12 09:02:20;;;;;;;9.73;4.57;;;;;;;7.62;20.14;100850.28;4470434;32;34316;-74
2022/03/12 09:04:50;;;;;;;11.95;4.12;;;;;;;6.62;20.92;100845.84;4456173;32;34000;-76
2022/03/12 09:07:18;;;;;;;7.85;4.15;;;;;;;7.90;20.29;100849.25;4471456;32;35060;-73
2022/03/12 09:09:47;;;;;;;13.80;4.40;;;;;;;7.65;20.89;100847.78;4485964;32;35122;-72
2022/03/12 09:12:15;;;;;;;7.28;3.35;;;;;;;8.23;19.34;100858.69;4469989;32;32973;-74
2022/03/12 09:14:45;;;;;;;7.68;4.32;;;;;;;8.24;19.88;100861.31;4470174;32;34856;-74
2022/03/12 09:17:12;;;;;;;9.05;4.10;;;;;;;8.72;19.12;100852.03;4472372;32;36002;-75
2022/03/12 09:19:41;;;;;;;7.22;3.55;;;;;;;8.22;20.13;100851.72;4456043;32;32965;-74
2022/03/12 09:22:08;;;;;;;8.55;3.92;;;;;;;9.23;18.72;100853.91;4482271;32;33761;-75
2022/03/12 09:24:38;;;;;;;7.20;3.80;;;;;;;9.64;18.38;100855.53;4475533;32;33870;-74
2022/03/12 09:27:06;;;;;;;8.75;3.85;;;;;;;9.66;18.22;100851.22;4456083;32;34753;-74
2022/03/12 09:29:35;;;;;;;8.30;3.53;;;;;;;10.22;17.40;100850.37;4449768;32;198838;-73
2022/03/12 09:32:08;;;;;;;7.10;3.35;;;;;;;10.56;16.75;100851.75;4469456;32;34482;-73
2022/03/12 09:34:37;;;;;;;6.25;3.70;;;;;;;10.30;17.35;100853.97;4453042;32;33977;-74
2022/03/12 09:37:06;;;;;;;8.40;4.00;;;;;;;9.59;18.04;100842.44;4454334;32;34951;-75
2022/03/12 09:39:34;;;;;;;9.20;4.62;;;;;;;8.41;20.05;100848.72;4454300;32;34483;-74
2022/03/12 09:42:03;;;;;;;6.15;3.58;;;;;;;9.91;17.87;100842.09;4453840;32;34277;-74
2022/03/12 09:44:30;;;;;;;7.70;3.75;;;;;;;10.96;16.46;100843.59;4454001;32;33872;-74
2022/03/12 09:46:58;;;;;;;7.75;3.72;;;;;;;10.63;17.17;100844.91;4453719;32;35936;-75
2022/03/12 09:49:27;;;;;;;8.07;4.20;;;;;;;11.14;16.54;100841.19;4453029;32;35257;-75
2022/03/12 09:51:57;;;;;;;9.52;4.95;;;;;;;11.16;15.99;100831.66;4463795;32;33570;-74
2022/03/12 09:54:29;;;;;;;6.87;3.42;;;;;;;11.49;16.34;100830.25;4469757;32;34762;-76
2022/03/12 09:56:57;;;;;;;11.70;4.80;;;;;;;11.07;16.19;100828.94;4456936;32;36000;-75
2022/03/12 09:59:25;;;;;;;6.62;3.60;;;;;;;11.18;16.38;100829.94;4454173;32;35282;-74
2022/03/12 10:01:54;;;;;;;6.93;3.70;;;;;;;11.55;16.19;100835.50;4459349;32;33271;-75
2022/03/12 10:04:23;;;;;;;5.90;3.35;;;;;;;11.17;16.44;100827.28;4453740;32;33891;-74
2022/03/12 10:06:51;;;;;;;5.18;2.87;;;;;;;10.92;16.46;100829.63;4465712;32;36042;-75
2022/03/12 10:09:19;;;;;;;5.40;3.83;;;;;;;10.22;16.82;100824.34;4471479;32;35205;-74
2022/03/12 10:11:50;;;;;;;13.35;6.20;;;;;;;10.80;16.65;100832.97;4460069;32;33502;-74
2022/03/12 10:14:18;;;;;;;5.82;3.55;;;;;;;11.46;16.18;100832.81;4454781;32;34828;-74
2022/03/12 10:16:47;;;;;;;11.68;3.72;;;;;;;10.30;17.76;100827.06;4458140;32;34748;-74
2022/03/12 10:19:15;;;;;;;8.32;3.72;;;;;;;9.80;17.79;100822.84;4456171;32;34576;-74
2022/03/12 10:21:42;;;;;;;10.65;4.60;;;;;;;10.11;17.36;100810.28;4454852;32;33366;-74
2022/03/12 10:24:14;;;;;;;8.30;3.90;;;;;;;11.27;17.26;100820.47;4455901;32;34873;-76
2022/03/12 10:26:42;;;;;;;6.40;3.17;;;;;;;11.14;16.53;100825.53;4463507;32;35721;-74
2022/03/12 10:29:10;;;;;;;7.50;3.62;;;;;;;12.60;15.71;100823.25;4471403;32;35181;-75
2022/03/12 10:31:41;;;;;;;7.57;4.37;;;;;;;12.03;15.99;100814.19;4470213;32;33579;-74
2022/03/12 10:34:23;;;;;;;6.20;3.47;;;;;;;12.52;15.38;100820.56;4470028;32;34159;-75
2022/03/12 10:36:54;;;;;;;8.73;4.90;;;;;;;11.48;15.77;100810.22;4460116;32;35052;-74
2022/03/12 10:39:35;;;;;;;5.47;3.00;;;;;;;11.80;15.96;100811.38;4454680;32;34408;-75
2022/03/12 10:42:07;;;;;;;5.93;3.05;;;;;;;12.49;15.08;100814.47;4454008;32;33426;-74
2022/03/12 10:44:37;;;;;;;5.57;3.17;;;;;;;11.67;16.42;100805.19;4455824;32;33650;-75
2022/03/12 10:47:22;;;;;;;7.40;3.10;;;;;;;12.72;14.90;100806.72;4454357;32;35763;-77
2022/03/12 10:49:58;;;;;;;5.10;3.00;;;;;;;12.00;15.23;100802.00;4454538;32;35147;-75
2022/03/12 10:52:31;;;;;;;6.87;2.80;;;;;;;11.94;15.27;100808.03;4455177;32;33546;-75
2022/03/12 10:55:01;;;;;;;5.05;3.03;;;;;;;11.46;15.27;100798.91;4454542;32;34510;-74
2022/03/12 10:57:28;;;;;;;6.12;3.00;;;;;;;12.43;15.90;100797.03;4467056;32;36051;-74
2022/03/12 10:59:56;;;;;;;7.03;3.62;;;;;;;11.72;15.56;100798.28;4471103;32;34411;-75
2022/03/12 11:02:24;;;;;;;6.12;3.08;;;;;;;11.89;15.74;100796.63;4454204;32;34511;-76
2022/03/12 11:04:52;;;;;;;5.43;2.75;;;;;;;12.20;15.01;100782.97;4455623;32;33993;-75
2022/03/12 11:07:28;;;;;;;6.12;3.03;;;;;;;13.08;14.50;100784.19;4465549;32;34324;-76
2022/03/12 11:09:57;;;;;;;5.85;2.83;;;;;;;13.18;14.35;100779.84;4470077;32;35285;-75
2022/03/12 11:12:35;;;;;;;6.85;2.97;;;;;;;12.60;15.24;100781.44;4460079;32;33982;-74
2022/03/12 11:15:10;;;;;;;7.15;3.22;;;;;;;12.55;14.88;100780.53;4455551;32;33929;-74
2022/03/12 11:17:44;;;;;;;6.20;3.12;;;;;;;13.30;14.09;100769.41;4453107;32;34658;-75
2022/03/12 11:20:17;;;;;;;7.05;3.25;;;;;;;12.85;14.88;100766.69;4453964;32;34363;-75
2022/03/12 11:22:51;;;;;;;7.50;3.65;;;;;;;14.56;13.40;100758.75;4454705;32;33454;-75
2022/03/12 11:25:21;;;;;;;5.90;3.28;;;;;;;13.60;13.83;100754.59;4454307;32;34836;-75
2022/03/12 11:27:50;;;;;;;5.30;3.00;;;;;;;12.57;14.39;100755.28;4454780;32;34901;-75
2022/03/12 11:30:21;;;;;;;6.18;3.25;;;;;;;12.95;15.61;100757.12;4454273;32;34354;-75
2022/03/12 11:33:04;;;;;;;6.45;3.58;;;;;;;12.89;15.15;100757.12;4454938;32;33483;-76
2022/03/12 11:35:39;;;;;;;6.93;3.25;;;;;;;13.80;14.15;100750.25;4453950;32;33786;-75
2022/03/12 11:38:22;;;;;;;6.47;3.37;;;;;;;13.28;14.26;100745.84;4454255;32;35916;-77